sensor_id;sensor_type;location;lat;lon;timestamp;P1;durP1;ratioP1;P2;durP2;ratioP2
59167;SDS011;44948;55.046;73.266;2023-04-01T00:02:26;8.68;;;2.72;;
59167;SDS011;44948;55.046;73.266;2023-04-01T00:05:39;8.52;;;2.17;;
59167;SDS011;44948;55.046;73.266;2023-04-01T00:08:42;9.55;;;2.50;;
59167;SDS011;44948;55.046;73.266;2023-04-01T00:11:45;6.18;;;2.58;;
59167;SDS011;44948;55.046;73.266;2023-04-01T00:14:48;7.07;;;2.53;;
59167;SDS011;44948;55.046;73.266;2023-04-01T00:17:50;6.28;;;2.65;;
59167;SDS011;44948;55.046;73.266;2023-04-01T00:20:53;10.95;;;3.72;;
59167;SDS011;44948;55.046;73.266;2023-04-01T00:24:08;4.38;;;2.03;;
59167;SDS011;44948;55.046;73.266;2023-04-01T00:27:20;16.80;;;2.13;;
59167;SDS011;44948;55.046;73.266;2023-04-01T00:30:23;5.00;;;1.90;;
59167;SDS011;44948;55.046;73.266;2023-04-01T00:33:26;7.45;;;1.80;;
59167;SDS011;44948;55.046;73.266;2023-04-01T00:36:31;5.38;;;2.15;;
59167;SDS011;44948;55.046;73.266;2023-04-01T00:39:44;6.18;;;2.00;;
59167;SDS011;44948;55.046;73.266;2023-04-01T00:42:53;5.75;;;2.00;;
59167;SDS011;44948;55.046;73.266;2023-04-01T00:45:59;7.05;;;2.40;;
59167;SDS011;44948;55.046;73.266;2023-04-01T00:49:02;4.40;;;1.70;;
59167;SDS011;44948;55.046;73.266;2023-04-01T00:52:05;4.13;;;1.48;;
59167;SDS011;44948;55.046;73.266;2023-04-01T00:55:10;6.32;;;1.77;;
59167;SDS011;44948;55.046;73.266;2023-04-01T00:58:15;6.85;;;1.73;;
59167;SDS011;44948;55.046;73.266;2023-04-01T01:01:25;6.30;;;1.83;;
59167;SDS011;44948;55.046;73.266;2023-04-01T01:04:30;5.47;;;2.22;;
59167;SDS011;44948;55.046;73.266;2023-04-01T01:10:49;12.57;;;2.00;;
59167;SDS011;44948;55.046;73.266;2023-04-01T01:13:55;8.60;;;2.25;;
59167;SDS011;44948;55.046;73.266;2023-04-01T01:27:57;5.40;;;1.67;;
59167;SDS011;44948;55.046;73.266;2023-04-01T01:32:15;9.00;;;2.47;;
59167;SDS011;44948;55.046;73.266;2023-04-01T01:38:23;4.35;;;1.85;;
59167;SDS011;44948;55.046;73.266;2023-04-01T01:41:35;5.22;;;1.90;;
59167;SDS011;44948;55.046;73.266;2023-04-01T01:44:41;7.78;;;2.40;;
59167;SDS011;44948;55.046;73.266;2023-04-01T01:47:48;5.93;;;1.73;;
59167;SDS011;44948;55.046;73.266;2023-04-01T01:51:03;6.43;;;2.05;;
59167;SDS011;44948;55.046;73.266;2023-04-01T01:54:18;7.50;;;2.35;;
59167;SDS011;44948;55.046;73.266;2023-04-01T01:57:28;7.95;;;2.47;;
59167;SDS011;44948;55.046;73.266;2023-04-01T02:00:38;9.07;;;2.28;;
59167;SDS011;44948;55.046;73.266;2023-04-01T02:03:43;8.18;;;2.33;;
59167;SDS011;44948;55.046;73.266;2023-04-01T02:06:56;7.37;;;2.10;;
59167;SDS011;44948;55.046;73.266;2023-04-01T02:10:04;5.18;;;2.45;;
59167;SDS011;44948;55.046;73.266;2023-04-01T02:13:21;8.13;;;2.90;;
59167;SDS011;44948;55.046;73.266;2023-04-01T02:16:50;6.53;;;2.28;;
59167;SDS011;44948;55.046;73.266;2023-04-01T02:19:59;11.25;;;3.20;;
59167;SDS011;44948;55.046;73.266;2023-04-01T02:23:08;10.05;;;2.60;;
59167;SDS011;44948;55.046;73.266;2023-04-01T02:26:12;8.90;;;2.25;;
59167;SDS011;44948;55.046;73.266;2023-04-01T02:29:26;8.13;;;2.72;;
59167;SDS011;44948;55.046;73.266;2023-04-01T02:32:29;10.00;;;3.08;;
59167;SDS011;44948;55.046;73.266;2023-04-01T02:35:37;7.35;;;3.40;;
59167;SDS011;44948;55.046;73.266;2023-04-01T02:38:42;8.60;;;2.78;;
59167;SDS011;44948;55.046;73.266;2023-04-01T02:41:47;8.75;;;3.55;;
59167;SDS011;44948;55.046;73.266;2023-04-01T02:44:52;10.77;;;3.90;;
59167;SDS011;44948;55.046;73.266;2023-04-01T02:47:54;14.43;;;3.72;;
59167;SDS011;44948;55.046;73.266;2023-04-01T02:50:59;11.65;;;3.38;;
59167;SDS011;44948;55.046;73.266;2023-04-01T03:02:10;8.30;;;3.33;;
59167;SDS011;44948;55.046;73.266;2023-04-01T03:05:12;18.23;;;5.28;;
59167;SDS011;44948;55.046;73.266;2023-04-01T03:08:19;5.63;;;3.20;;
59167;SDS011;44948;55.046;73.266;2023-04-01T03:11:25;8.67;;;3.77;;
59167;SDS011;44948;55.046;73.266;2023-04-01T03:14:27;10.40;;;3.28;;
59167;SDS011;44948;55.046;73.266;2023-04-01T03:17:33;12.20;;;3.65;;
59167;SDS011;44948;55.046;73.266;2023-04-01T03:23:43;9.75;;;3.50;;
59167;SDS011;44948;55.046;73.266;2023-04-01T03:26:46;9.20;;;3.40;;
59167;SDS011;44948;55.046;73.266;2023-04-01T03:29:48;15.75;;;2.95;;
59167;SDS011;44948;55.046;73.266;2023-04-01T03:32:51;11.13;;;3.75;;
59167;SDS011;44948;55.046;73.266;2023-04-01T03:35:54;8.80;;;2.33;;
59167;SDS011;44948;55.046;73.266;2023-04-01T03:39:01;9.35;;;3.15;;
59167;SDS011;44948;55.046;73.266;2023-04-01T03:42:12;16.10;;;3.97;;
59167;SDS011;44948;55.046;73.266;2023-04-01T03:45:14;7.75;;;3.05;;
59167;SDS011;44948;55.046;73.266;2023-04-01T03:48:17;5.70;;;2.45;;
59167;SDS011;44948;55.046;73.266;2023-04-01T03:51:28;12.35;;;4.50;;
59167;SDS011;44948;55.046;73.266;2023-04-01T03:54:30;17.52;;;5.80;;
59167;SDS011;44948;55.046;73.266;2023-04-01T03:57:34;13.75;;;4.18;;
59167;SDS011;44948;55.046;73.266;2023-04-01T04:00:47;13.05;;;4.25;;
59167;SDS011;44948;55.046;73.266;2023-04-01T04:03:50;8.85;;;3.88;;
59167;SDS011;44948;55.046;73.266;2023-04-01T04:06:53;10.50;;;4.55;;
59167;SDS011;44948;55.046;73.266;2023-04-01T04:09:57;8.85;;;3.08;;
59167;SDS011;44948;55.046;73.266;2023-04-01T04:13:10;6.05;;;2.72;;
59167;SDS011;44948;55.046;73.266;2023-04-01T04:16:27;13.18;;;3.72;;
59167;SDS011;44948;55.046;73.266;2023-04-01T04:19:33;8.02;;;3.17;;
59167;SDS011;44948;55.046;73.266;2023-04-01T04:22:36;5.15;;;2.40;;
59167;SDS011;44948;55.046;73.266;2023-04-01T04:25:41;5.30;;;2.85;;
59167;SDS011;44948;55.046;73.266;2023-04-01T04:28:57;7.50;;;3.35;;
59167;SDS011;44948;55.046;73.266;2023-04-01T04:32:00;14.45;;;3.97;;
59167;SDS011;44948;55.046;73.266;2023-04-01T04:35:13;13.88;;;5.50;;
59167;SDS011;44948;55.046;73.266;2023-04-01T04:38:16;7.57;;;2.88;;
59167;SDS011;44948;55.046;73.266;2023-04-01T04:41:19;4.17;;;2.50;;
59167;SDS011;44948;55.046;73.266;2023-04-01T04:44:24;5.00;;;1.85;;
59167;SDS011;44948;55.046;73.266;2023-04-01T04:47:27;7.03;;;3.80;;
59167;SDS011;44948;55.046;73.266;2023-04-01T04:50:29;5.03;;;1.95;;
59167;SDS011;44948;55.046;73.266;2023-04-01T04:53:32;7.68;;;1.92;;
59167;SDS011;44948;55.046;73.266;2023-04-01T04:56:34;7.18;;;2.50;;
59167;SDS011;44948;55.046;73.266;2023-04-01T04:59:42;10.32;;;2.58;;
59167;SDS011;44948;55.046;73.266;2023-04-01T05:02:59;18.43;;;5.33;;
59167;SDS011;44948;55.046;73.266;2023-04-01T05:06:01;5.18;;;1.80;;
59167;SDS011;44948;55.046;73.266;2023-04-01T05:09:04;9.45;;;2.25;;
59167;SDS011;44948;55.046;73.266;2023-04-01T05:12:07;9.88;;;2.70;;
59167;SDS011;44948;55.046;73.266;2023-04-01T05:15:32;11.85;;;2.60;;
59167;SDS011;44948;55.046;73.266;2023-04-01T05:18:42;10.75;;;3.50;;
59167;SDS011;44948;55.046;73.266;2023-04-01T05:21:49;10.60;;;4.78;;
59167;SDS011;44948;55.046;73.266;2023-04-01T05:25:02;13.85;;;4.53;;
59167;SDS011;44948;55.046;73.266;2023-04-01T05:28:04;13.90;;;4.45;;
59167;SDS011;44948;55.046;73.266;2023-04-01T05:31:09;9.73;;;2.80;;
59167;SDS011;44948;55.046;73.266;2023-04-01T05:34:20;6.35;;;2.40;;
59167;SDS011;44948;55.046;73.266;2023-04-01T05:37:23;7.45;;;2.88;;
59167;SDS011;44948;55.046;73.266;2023-04-01T13:10:43;9.57;;;2.95;;
59167;SDS011;44948;55.046;73.266;2023-04-01T13:20:27;11.85;;;3.35;;
59167;SDS011;44948;55.046;73.266;2023-04-01T13:34:16;7.13;;;2.72;;
59167;SDS011;44948;55.046;73.266;2023-04-01T13:44:36;7.90;;;3.47;;
59167;SDS011;44948;55.046;73.266;2023-04-01T13:58:42;8.15;;;3.28;;
59167;SDS011;44948;55.046;73.266;2023-04-01T14:12:46;14.75;;;3.90;;
59167;SDS011;44948;55.046;73.266;2023-04-01T14:26:22;11.98;;;4.38;;
59167;SDS011;44948;55.046;73.266;2023-04-01T14:36:50;10.35;;;4.03;;
59167;SDS011;44948;55.046;73.266;2023-04-01T14:47:13;10.07;;;3.17;;
59167;SDS011;44948;55.046;73.266;2023-04-01T14:50:43;11.48;;;3.13;;
59167;SDS011;44948;55.046;73.266;2023-04-01T14:57:29;13.23;;;3.17;;
59167;SDS011;44948;55.046;73.266;2023-04-01T15:00:40;9.13;;;2.67;;
59167;SDS011;44948;55.046;73.266;2023-04-01T15:18:09;8.93;;;2.75;;
59167;SDS011;44948;55.046;73.266;2023-04-01T15:35:51;7.20;;;2.80;;
59167;SDS011;44948;55.046;73.266;2023-04-01T15:39:30;7.07;;;2.95;;
59167;SDS011;44948;55.046;73.266;2023-04-01T15:43:33;9.05;;;2.58;;
59167;SDS011;44948;55.046;73.266;2023-04-01T15:46:50;11.00;;;2.83;;
59167;SDS011;44948;55.046;73.266;2023-04-01T15:57:20;6.05;;;2.38;;
59167;SDS011;44948;55.046;73.266;2023-04-01T16:03:29;8.02;;;2.70;;
59167;SDS011;44948;55.046;73.266;2023-04-01T16:06:49;11.27;;;3.75;;
59167;SDS011;44948;55.046;73.266;2023-04-01T16:10:16;4.97;;;2.83;;
59167;SDS011;44948;55.046;73.266;2023-04-01T16:17:12;8.38;;;2.65;;
59167;SDS011;44948;55.046;73.266;2023-04-01T16:41:24;8.93;;;3.15;;
59167;SDS011;44948;55.046;73.266;2023-04-01T16:48:20;6.38;;;2.33;;
59167;SDS011;44948;55.046;73.266;2023-04-01T17:05:11;6.50;;;2.30;;
59167;SDS011;44948;55.046;73.266;2023-04-01T17:08:32;5.90;;;2.72;;
59167;SDS011;44948;55.046;73.266;2023-04-01T17:12:05;7.00;;;2.83;;
59167;SDS011;44948;55.046;73.266;2023-04-01T17:26:02;9.02;;;2.60;;
59167;SDS011;44948;55.046;73.266;2023-04-01T17:42:38;6.55;;;2.20;;
59167;SDS011;44948;55.046;73.266;2023-04-01T17:46:04;15.35;;;2.58;;
59167;SDS011;44948;55.046;73.266;2023-04-01T17:59:39;7.40;;;1.77;;
59167;SDS011;44948;55.046;73.266;2023-04-01T18:15:49;5.38;;;1.90;;
59167;SDS011;44948;55.046;73.266;2023-04-01T18:25:54;6.00;;;2.03;;
59167;SDS011;44948;55.046;73.266;2023-04-01T18:36:44;4.55;;;2.17;;
59167;SDS011;44948;55.046;73.266;2023-04-01T18:39:56;4.78;;;1.63;;
59167;SDS011;44948;55.046;73.266;2023-04-01T18:43:14;7.63;;;2.38;;
59167;SDS011;44948;55.046;73.266;2023-04-01T18:50:38;3.67;;;1.65;;
59167;SDS011;44948;55.046;73.266;2023-04-01T18:53:49;5.30;;;1.27;;
59167;SDS011;44948;55.046;73.266;2023-04-01T18:57:37;5.47;;;1.83;;
59167;SDS011;44948;55.046;73.266;2023-04-01T19:00:36;6.82;;;1.45;;
59167;SDS011;44948;55.046;73.266;2023-04-01T19:14:19;6.63;;;1.77;;
59167;SDS011;44948;55.046;73.266;2023-04-01T19:20:45;6.70;;;1.70;;
59167;SDS011;44948;55.046;73.266;2023-04-01T19:37:32;7.63;;;1.58;;
59167;SDS011;44948;55.046;73.266;2023-04-01T19:40:55;4.95;;;1.80;;
59167;SDS011;44948;55.046;73.266;2023-04-01T19:51:34;5.25;;;1.60;;
59167;SDS011;44948;55.046;73.266;2023-04-01T19:58:31;5.30;;;1.75;;
59167;SDS011;44948;55.046;73.266;2023-04-01T20:05:51;8.82;;;3.05;;
59167;SDS011;44948;55.046;73.266;2023-04-01T20:12:21;3.47;;;1.55;;
59167;SDS011;44948;55.046;73.266;2023-04-01T20:15:44;3.70;;;1.20;;
59167;SDS011;44948;55.046;73.266;2023-04-01T20:22:02;3.55;;;1.58;;
59167;SDS011;44948;55.046;73.266;2023-04-01T20:25:12;4.82;;;1.88;;
59167;SDS011;44948;55.046;73.266;2023-04-01T20:28:30;5.78;;;1.70;;
59167;SDS011;44948;55.046;73.266;2023-04-01T20:48:37;8.30;;;2.00;;
59167;SDS011;44948;55.046;73.266;2023-04-01T21:26:26;4.75;;;1.55;;
59167;SDS011;44948;55.046;73.266;2023-04-01T21:47:08;5.68;;;1.52;;
59167;SDS011;44948;55.046;73.266;2023-04-01T21:50:39;8.43;;;1.60;;
59167;SDS011;44948;55.046;73.266;2023-04-01T22:01:14;3.97;;;1.60;;
59167;SDS011;44948;55.046;73.266;2023-04-01T22:11:35;7.53;;;1.98;;
59167;SDS011;44948;55.046;73.266;2023-04-01T22:18:54;6.50;;;1.70;;
59167;SDS011;44948;55.046;73.266;2023-04-01T22:25:20;5.82;;;1.70;;
59167;SDS011;44948;55.046;73.266;2023-04-01T22:32:10;5.05;;;1.60;;
59167;SDS011;44948;55.046;73.266;2023-04-01T22:38:40;5.55;;;1.90;;
59167;SDS011;44948;55.046;73.266;2023-04-01T22:41:56;8.32;;;3.10;;
59167;SDS011;44948;55.046;73.266;2023-04-01T22:48:54;3.50;;;1.58;;
59167;SDS011;44948;55.046;73.266;2023-04-01T22:55:35;6.72;;;1.45;;
59167;SDS011;44948;55.046;73.266;2023-04-01T22:58:54;3.55;;;1.45;;
59167;SDS011;44948;55.046;73.266;2023-04-01T23:02:31;4.10;;;1.60;;
59167;SDS011;44948;55.046;73.266;2023-04-01T23:05:43;5.30;;;1.95;;
59167;SDS011;44948;55.046;73.266;2023-04-01T23:12:21;4.28;;;1.50;;
59167;SDS011;44948;55.046;73.266;2023-04-01T23:15:35;4.70;;;1.90;;
59167;SDS011;44948;55.046;73.266;2023-04-01T23:25:40;3.75;;;1.60;;
59167;SDS011;44948;55.046;73.266;2023-04-01T23:28:46;3.42;;;1.60;;
59167;SDS011;44948;55.046;73.266;2023-04-01T23:31:58;5.13;;;1.90;;
59167;SDS011;44948;55.046;73.266;2023-04-01T23:35:02;7.38;;;1.92;;
59167;SDS011;44948;55.046;73.266;2023-04-01T23:38:04;3.97;;;1.67;;
59167;SDS011;44948;55.046;73.266;2023-04-01T23:41:07;6.25;;;1.40;;
59167;SDS011;44948;55.046;73.266;2023-04-01T23:44:21;4.70;;;1.70;;
59167;SDS011;44948;55.046;73.266;2023-04-01T23:47:38;11.80;;;1.92;;
59167;SDS011;44948;55.046;73.266;2023-04-01T23:50:48;5.80;;;2.10;;
59167;SDS011;44948;55.046;73.266;2023-04-01T23:54:04;3.35;;;1.55;;
59167;SDS011;44948;55.046;73.266;2023-04-01T23:57:21;8.50;;;1.90;;
